Terminal Aerodrome Forecast
Issued by NWS Jackson, MS

Current Version | Previous Version | Text Only | Print | Product List | Glossary On
Versions: 1 2 3 4 5 6 7 8 9 10 11 12 13 14 15
000
FTUS44 KJAN 230500
TAFGLH
TAF
KGLH 230520Z 2306/2406 13010KT P6SM SCT120 BKN250
     FM230730 12010KT P6SM BKN015 OVC080
     FM230900 11012KT 6SM -SHRA OVC010
     FM231200 12012KT 4SM -TSRA OVC007CB
     FM231700 20016G26KT P6SM VCSH SCT020 BKN040
     FM240000 21017G27KT P6SM FEW040=

USA.gov is the U.S. government's official web portal to all federal, state and local government web resources and services.